Contract 0x9b416609f866a423d989296f121a9d2313ed9eee 2

 
 
Txn Hash Method
Block
From
To
Value [Txn Fee]
0x0102dd0a7874a90cf12b7701cf4243e78d80fd227242a86c28cecbff7ada85b4Sell131699802021-04-12 5:19:29400 days 12 hrs ago0xf4ceb1c82f11d727933c226c149d9a833a078c57 IN  0x9b416609f866a423d989296f121a9d2313ed9eee0 MATIC0.0003753662
0x373be7327b773fd88ebfdce5562160e2046cc6b5e7bf0eec967da5448709b691Sell131699802021-04-12 5:19:29400 days 12 hrs ago0xf4ceb1c82f11d727933c226c149d9a833a078c57 IN  0x9b416609f866a423d989296f121a9d2313ed9eee0 MATIC0.000375392
0x598c2a9044354d927954c1dfaab7c063fbeffb6de4e3e13959153482f66b4cd2Buy131699802021-04-12 5:19:29400 days 12 hrs ago0xf4ceb1c82f11d727933c226c149d9a833a078c57 IN  0x9b416609f866a423d989296f121a9d2313ed9eee0 MATIC0.02337555110
0xef6025c22cdb0be91882ef0eb40871cc0a73329446abf23926090b613297c771Sell131616502021-04-12 0:29:16400 days 17 hrs ago0xf4ceb1c82f11d727933c226c149d9a833a078c57 IN  0x9b416609f866a423d989296f121a9d2313ed9eee0 MATIC0.0003753662
0x9122a3551146f772a9ed5f624b17d95ab796ed153d5053bdebfc9e638104ad02Sell131616502021-04-12 0:29:16400 days 17 hrs ago0xf4ceb1c82f11d727933c226c149d9a833a078c57 IN  0x9b416609f866a423d989296f121a9d2313ed9eee0 MATIC0.000375392
0x6a1b87a1e3d3c0f87618fc8b912bffbcebd873b9a8d04207342010daea8b0c6cBuy131616502021-04-12 0:29:16400 days 17 hrs ago0xf4ceb1c82f11d727933c226c149d9a833a078c57 IN  0x9b416609f866a423d989296f121a9d2313ed9eee0 MATIC0.02337555110
0x0d0d11ea2a5707b2cf7768671f4d8d82b572707f3dae69a8750035c83b5550b7Sell131554002021-04-11 20:48:57400 days 21 hrs ago0xf4ceb1c82f11d727933c226c149d9a833a078c57 IN  0x9b416609f866a423d989296f121a9d2313ed9eee0 MATIC0.0003753662
0x807857a1361aa6beba4c254a5e01a8648d77d9c186975737a3b90f18cee93e94Sell131554002021-04-11 20:48:57400 days 21 hrs ago0xf4ceb1c82f11d727933c226c149d9a833a078c57 IN  0x9b416609f866a423d989296f121a9d2313ed9eee0 MATIC0.000375392
0x43335797f48d0594534c38b0e92443c4ba5c3ed13d5487f2a94641681d65c2ddBuy131554002021-04-11 20:48:57400 days 21 hrs ago0xf4ceb1c82f11d727933c226c149d9a833a078c57 IN  0x9b416609f866a423d989296f121a9d2313ed9eee0 MATIC0.02337555110
0x01896dde75aece6e8176722543fa10b7fbf382454faae81fb74c507f254e7c6fSell131503302021-04-11 17:48:18401 days 20 mins ago0xf4ceb1c82f11d727933c226c149d9a833a078c57 IN  0x9b416609f866a423d989296f121a9d2313ed9eee0 MATIC0.0003753662
0x06f306d1d4d363d612b4f769a20afc3f6f611b56db12be51a202e8e8dfb56173Sell131503302021-04-11 17:48:18401 days 20 mins ago0xf4ceb1c82f11d727933c226c149d9a833a078c57 IN  0x9b416609f866a423d989296f121a9d2313ed9eee0 MATIC0.000375392
0x2a7f58a4fe675b9f08aa6e400f992eae6a8417ed974089e4bbcea0bc8345c19dBuy131503302021-04-11 17:48:18401 days 20 mins ago0xf4ceb1c82f11d727933c226c149d9a833a078c57 IN  0x9b416609f866a423d989296f121a9d2313ed9eee0 MATIC0.02337555110
0x22dcdd41b5a45a189da9c4059d8be8589c6a7914fee514a5eedc775652fd8e09Sell131316392021-04-11 6:41:29401 days 11 hrs ago0xf4ceb1c82f11d727933c226c149d9a833a078c57 IN  0x9b416609f866a423d989296f121a9d2313ed9eee0 MATIC0.0003753662
0x8b12df153e83a5957ec930c3f02f456da63c1fecdb7ca5af341d863649d38aebSell131316392021-04-11 6:41:29401 days 11 hrs ago0xf4ceb1c82f11d727933c226c149d9a833a078c57 IN  0x9b416609f866a423d989296f121a9d2313ed9eee0 MATIC0.000375392
0x153aa0e8eaabfe1e8c956ba4e3bdbed44f9c623a1b0edf35fd961e4c2652578bBuy131316392021-04-11 6:41:29401 days 11 hrs ago0xf4ceb1c82f11d727933c226c149d9a833a078c57 IN  0x9b416609f866a423d989296f121a9d2313ed9eee0 MATIC0.02337555110
0x5c1e65617cff871b25083637dd0296f0069b2cafff339438e4ec62971a01af0aSell131311732021-04-11 6:24:19401 days 11 hrs ago0xf4ceb1c82f11d727933c226c149d9a833a078c57 IN  0x9b416609f866a423d989296f121a9d2313ed9eee0 MATIC0.0003753662
0x2baf292769b3a29d6c361544644b36fbacdc786ad3bb928c5b23353cc8ded31eSell131311732021-04-11 6:24:19401 days 11 hrs ago0xf4ceb1c82f11d727933c226c149d9a833a078c57 IN  0x9b416609f866a423d989296f121a9d2313ed9eee0 MATIC0.000375392
0xe8358d37577befdc3cb72439efee9d127b16b8b2dd7df389432851efd31a8feaBuy131311732021-04-11 6:24:19401 days 11 hrs ago0xf4ceb1c82f11d727933c226c149d9a833a078c57 IN  0x9b416609f866a423d989296f121a9d2313ed9eee0 MATIC0.02502555110
0xb9dbfbbea8ee9f6a0bf8d39ff64ac151842b969c25773ab5592ceb343525a5f9Sell131109872021-04-10 18:34:37401 days 23 hrs ago0x6d289c4430d5825db2ec990cb9a91b73dd436ff1 IN  0x9b416609f866a423d989296f121a9d2313ed9eee0 MATIC0.0000805042
0xad23981160504235a157fce7dcb35c73702ad75657bbee18dde6b5258221e2b0Buy131109872021-04-10 18:34:37401 days 23 hrs ago0x6d289c4430d5825db2ec990cb9a91b73dd436ff1 IN  0x9b416609f866a423d989296f121a9d2313ed9eee0 MATIC0.00441001110
0x38d5cd78fc47a80a1fd9342e28b55ff17d73c8845affcef0d960072252a55da5Sell131101692021-04-10 18:06:23402 days 2 mins ago0x6d289c4430d5825db2ec990cb9a91b73dd436ff1 IN  0x9b416609f866a423d989296f121a9d2313ed9eee0 MATIC0.000375392
0x0ef4dd454d9c1840ec100f70e7b4a53553819db5a144cf260aa2d955139d4c45Buy131101692021-04-10 18:06:23402 days 2 mins ago0x6d289c4430d5825db2ec990cb9a91b73dd436ff1 IN  0x9b416609f866a423d989296f121a9d2313ed9eee0 MATIC0.02337555110
0xbffc96cd7f57f61667406d46dd0de394c29b30e13dba83432f20a20e416e65d8Sell131097882021-04-10 17:53:17402 days 15 mins ago0x6d289c4430d5825db2ec990cb9a91b73dd436ff1 IN  0x9b416609f866a423d989296f121a9d2313ed9eee0 MATIC0.000375392
0xc5e8d142d13272fccda9825e0e91b0fc61b5c6b8dc22fc7a980d7b8393921f5eBuy131097882021-04-10 17:53:17402 days 15 mins ago0x6d289c4430d5825db2ec990cb9a91b73dd436ff1 IN  0x9b416609f866a423d989296f121a9d2313ed9eee0 MATIC0.02337555110
0xd2ab0a1d7a1f63b92706deea66663fc6ad7706f285a1972c4ef56f60082f2379Sell131095442021-04-10 17:44:43402 days 23 mins ago0x6d289c4430d5825db2ec990cb9a91b73dd436ff1 IN  0x9b416609f866a423d989296f121a9d2313ed9eee0 MATIC0.0000805042
[ Download CSV Export 
Latest 1 internal transaction
Parent Txn Hash Block From To Value
0xe977b8a27a2cb0097059b9bd8bd229a72dcb48dcc28feb75d0811d13f029e8a3123738422021-03-23 17:06:49420 days 1 hr ago 0x8b9805a2f595b6705e74f7310829f2d299d21522  Contract Creation0 MATIC
[ Download CSV Export 
Loading
Are you the contract creator? Verify and Publish your contract source code today!
This contract was created by the contract code at 0x8b9805a2f595b6705e74f7310829f2d299d21522
Note: We also found another 6838 contracts with exact matching byte codes

Decompile ByteCode
0x363d3d373d3d3d363d730b8a853ad2e8984a429f36dabc75f0cbdd5534f85af43d82803e903d91602b57fd5bf3 
Block Transaction Gas Used Reward
Age Block Fee Address BC Fee Address Voting Power Jailed Incoming
Block Uncle Number Difficulty Gas Used Reward
Loading
Loading
Make sure to use the "Vote Down" button for any spammy posts, and the "Vote Up" for interesting conversations.